createdAt,value
2023-04-29T00:02:39.111Z,7.77
2023-04-29T00:05:41.224Z,8.07
2023-04-29T00:08:42.970Z,7.97
2023-04-29T00:11:44.616Z,7.73
2023-04-29T00:14:46.184Z,8.60
2023-04-29T00:17:48.267Z,8.47
2023-04-29T00:20:49.955Z,8.40
2023-04-29T00:23:51.802Z,8.93
2023-04-29T00:26:53.420Z,9.03
2023-04-29T00:29:55.139Z,9.23
2023-04-29T00:32:56.904Z,8.33
2023-04-29T00:35:58.617Z,8.53
2023-04-29T00:39:00.228Z,9.00
2023-04-29T00:42:03.609Z,8.73
2023-04-29T00:45:08.111Z,7.17
2023-04-29T00:48:09.963Z,9.03
2023-04-29T00:51:12.691Z,8.37
2023-04-29T00:54:14.374Z,8.00
2023-04-29T00:57:16.088Z,7.63
2023-04-29T01:00:18.791Z,8.37
2023-04-29T01:03:20.696Z,7.70
2023-04-29T01:06:41.364Z,6.90
2023-04-29T01:10:01.697Z,7.40
2023-04-29T01:13:13.648Z,7.50
2023-04-29T01:16:25.351Z,8.30
2023-04-29T01:19:48.484Z,7.87
2023-04-29T01:22:50.171Z,7.90
2023-04-29T01:25:51.971Z,8.70
2023-04-29T01:29:36.832Z,9.93
2023-04-29T01:32:42.547Z,9.67
2023-04-29T01:35:59.731Z,11.07
2023-04-29T01:39:25.140Z,10.77
2023-04-29T01:42:39.498Z,9.30
2023-04-29T01:45:45.804Z,7.80
2023-04-29T01:48:48.794Z,8.07
2023-04-29T01:51:51.242Z,8.50
2023-04-29T01:54:52.978Z,7.27
2023-04-29T01:57:56.152Z,7.70
2023-04-29T02:01:16.360Z,7.63
2023-04-29T02:04:18.437Z,7.80
2023-04-29T02:07:20.572Z,8.33
2023-04-29T02:10:23.104Z,8.10
2023-04-29T02:13:30.737Z,8.03
2023-04-29T02:16:32.800Z,7.10
2023-04-29T02:19:38.116Z,8.07
2023-04-29T02:22:39.976Z,8.00
2023-04-29T02:25:41.613Z,7.57
2023-04-29T02:28:43.309Z,7.60
2023-04-29T02:31:45.018Z,7.80
2023-04-29T02:34:46.903Z,7.57
2023-04-29T02:37:48.669Z,7.80
2023-04-29T02:40:50.479Z,7.77
2023-04-29T02:43:52.235Z,7.10
2023-04-29T02:46:54.152Z,7.37
2023-04-29T02:49:56.076Z,7.13
2023-04-29T02:52:57.925Z,7.50
2023-04-29T02:55:59.579Z,7.57
2023-04-29T02:59:01.323Z,7.60
2023-04-29T03:02:03.037Z,8.23
2023-04-29T03:05:05.146Z,7.40
2023-04-29T03:08:07.555Z,7.80
2023-04-29T03:11:09.402Z,7.03
2023-04-29T03:14:11.808Z,8.00
2023-04-29T03:17:13.827Z,8.40
2023-04-29T03:20:16.363Z,7.60
2023-04-29T03:23:18.005Z,7.63
2023-04-29T03:26:19.817Z,8.03
2023-04-29T03:29:21.623Z,8.57
2023-04-29T03:32:24.241Z,7.87
2023-04-29T03:35:26.289Z,7.13
2023-04-29T03:38:46.574Z,7.30
2023-04-29T03:41:50.607Z,6.50
2023-04-29T03:44:52.228Z,6.77
2023-04-29T03:47:54.484Z,7.50
2023-04-29T03:50:56.177Z,7.37
2023-04-29T03:53:58.982Z,7.30
2023-04-29T03:57:02.372Z,7.13
2023-04-29T04:00:04.565Z,6.33
2023-04-29T04:03:15.046Z,6.90
2023-04-29T04:06:19.656Z,6.80
2023-04-29T04:09:21.510Z,6.70
2023-04-29T04:12:23.297Z,6.30
2023-04-29T04:15:24.966Z,6.30
2023-04-29T04:18:27.654Z,6.30
2023-04-29T04:21:32.116Z,6.07
2023-04-29T04:24:39.543Z,5.47
2023-04-29T04:27:41.346Z,6.20
2023-04-29T04:30:57.159Z,6.67
2023-04-29T04:33:59.928Z,5.63
2023-04-29T04:37:02.836Z,5.57
2023-04-29T04:40:06.578Z,4.90
2023-04-29T04:43:17.541Z,6.07
2023-04-29T04:46:20.156Z,5.67
2023-04-29T04:49:35.905Z,5.00
2023-04-29T04:52:37.580Z,5.47
2023-04-29T04:55:55.166Z,5.10
2023-04-29T04:58:57.141Z,5.67
2023-04-29T05:01:59.381Z,5.50
2023-04-29T05:05:01.324Z,4.67
2023-04-29T05:08:05.988Z,5.40
2023-04-29T05:11:20.612Z,5.47
2023-04-29T05:14:38.428Z,5.13
2023-04-29T05:17:40.188Z,4.40
2023-04-29T05:20:41.909Z,5.60
2023-04-29T05:23:43.638Z,7.60
2023-04-29T05:26:45.269Z,8.80
2023-04-29T05:29:47.704Z,5.90
2023-04-29T05:32:49.470Z,6.07
2023-04-29T05:35:53.467Z,7.73
2023-04-29T05:38:55.281Z,8.43
2023-04-29T05:41:57.425Z,8.70
2023-04-29T05:45:10.610Z,8.07
2023-04-29T05:48:12.333Z,7.57
2023-04-29T05:51:14.433Z,8.53
2023-04-29T05:54:16.461Z,8.93
2023-04-29T05:57:19.618Z,8.87
2023-04-29T06:00:21.662Z,9.53
2023-04-29T06:03:23.982Z,8.10
2023-04-29T06:06:45.363Z,10.00
2023-04-29T06:10:00.559Z,10.87
2023-04-29T06:13:05.623Z,6.77
2023-04-29T06:16:07.995Z,4.23
2023-04-29T06:19:12.281Z,4.47
2023-04-29T06:22:13.900Z,5.27
2023-04-29T06:25:22.534Z,5.17
2023-04-29T06:28:25.957Z,3.90
2023-04-29T06:31:27.885Z,4.53
2023-04-29T06:34:34.578Z,5.60
2023-04-29T06:37:56.723Z,4.77
2023-04-29T06:41:19.320Z,4.87
2023-04-29T06:44:30.198Z,7.73
2023-04-29T06:47:48.777Z,5.60
2023-04-29T06:51:02.031Z,6.60
2023-04-29T06:54:03.901Z,7.20
2023-04-29T06:57:05.860Z,7.80
2023-04-29T07:00:08.301Z,7.97
2023-04-29T07:03:11.590Z,8.27
2023-04-29T07:06:13.669Z,7.63
2023-04-29T07:09:15.521Z,7.00
2023-04-29T07:12:17.346Z,6.47
2023-04-29T07:15:19.155Z,4.88
2023-04-29T07:18:20.920Z,3.67
2023-04-29T07:21:22.745Z,4.35
2023-04-29T07:24:24.570Z,3.75
2023-04-29T07:27:26.403Z,4.07
2023-04-29T07:30:28.397Z,3.45
2023-04-29T07:33:30.884Z,4.03
2023-04-29T07:36:33.176Z,3.40
2023-04-29T07:39:36.554Z,3.50
2023-04-29T07:42:38.518Z,3.10
2023-04-29T07:45:41.598Z,4.47
2023-04-29T07:48:43.334Z,8.40
2023-04-29T07:51:45.834Z,3.35
2023-04-29T07:54:47.511Z,4.88
2023-04-29T07:57:49.105Z,3.20
2023-04-29T08:00:50.922Z,3.90
2023-04-29T08:03:52.885Z,3.03
2023-04-29T08:06:56.346Z,3.78
2023-04-29T08:09:58.024Z,3.45
2023-04-29T08:12:59.677Z,2.80
2023-04-29T08:16:01.354Z,3.95
2023-04-29T08:19:03.266Z,4.18
2023-04-29T08:22:05.144Z,3.53
2023-04-29T08:25:07.145Z,3.33
2023-04-29T08:28:09.391Z,3.80
2023-04-29T08:31:20.712Z,7.35
2023-04-29T08:34:22.449Z,3.30
2023-04-29T08:37:24.153Z,3.70
2023-04-29T08:40:26.587Z,3.35
2023-04-29T08:43:28.812Z,3.40
2023-04-29T08:46:34.041Z,4.07
2023-04-29T08:49:40.761Z,3.15
2023-04-29T08:52:42.533Z,3.80
2023-04-29T08:55:48.388Z,2.90
2023-04-29T08:58:54.452Z,4.03
2023-04-29T09:01:56.582Z,3.38
2023-04-29T09:05:06.592Z,2.60
2023-04-29T09:08:08.713Z,3.00
2023-04-29T09:11:12.266Z,2.75
2023-04-29T09:14:15.418Z,3.22
2023-04-29T09:17:17.057Z,3.45
2023-04-29T09:20:21.970Z,4.65
2023-04-29T09:23:36.697Z,3.35
2023-04-29T09:26:43.008Z,3.10
2023-04-29T09:30:00.651Z,3.10
2023-04-29T09:33:07.262Z,3.67
2023-04-29T09:36:08.920Z,2.85
2023-04-29T09:39:18.975Z,3.10
2023-04-29T09:42:20.803Z,3.50
2023-04-29T09:45:35.824Z,3.10
2023-04-29T09:48:38.239Z,3.33
2023-04-29T09:51:52.042Z,3.03
2023-04-29T09:55:04.781Z,3.67
2023-04-29T09:58:06.521Z,3.70
2023-04-29T10:01:08.591Z,3.33
2023-04-29T10:04:12.300Z,3.47
2023-04-29T10:07:15.060Z,3.57
2023-04-29T10:10:17.329Z,3.10
2023-04-29T10:13:20.188Z,3.20
2023-04-29T10:16:29.862Z,3.20
2023-04-29T10:19:39.032Z,3.20
2023-04-29T10:22:46.029Z,3.20
2023-04-29T10:25:48.513Z,3.03
2023-04-29T10:28:51.811Z,2.80
2023-04-29T10:31:54.522Z,3.07
2023-04-29T10:34:57.111Z,4.20
2023-04-29T10:38:00.030Z,3.63
2023-04-29T10:41:04.268Z,3.70
2023-04-29T10:44:05.886Z,3.30
2023-04-29T10:47:20.467Z,3.63
2023-04-29T10:50:22.286Z,2.93
2023-04-29T10:53:23.942Z,3.10
2023-04-29T10:56:36.098Z,3.33
2023-04-29T10:59:40.849Z,3.20
2023-04-29T11:02:42.714Z,3.03
2023-04-29T11:05:45.837Z,2.80
2023-04-29T11:08:47.505Z,3.50
2023-04-29T11:11:49.567Z,3.50
2023-04-29T11:14:51.708Z,3.00
2023-04-29T11:17:54.081Z,4.00
2023-04-29T11:21:04.726Z,3.00
2023-04-29T11:24:06.740Z,3.00
2023-04-29T11:27:08.429Z,2.80
2023-04-29T11:30:10.262Z,2.90
2023-04-29T11:33:11.900Z,3.30
2023-04-29T11:36:14.385Z,2.90
2023-04-29T11:39:17.136Z,2.87
2023-04-29T11:42:22.130Z,3.23
2023-04-29T11:45:23.671Z,3.47
2023-04-29T11:48:25.990Z,3.27
2023-04-29T11:51:28.664Z,3.20
2023-04-29T11:54:30.788Z,4.80
2023-04-29T11:57:32.500Z,3.57
2023-04-29T12:00:34.199Z,3.47
2023-04-29T12:03:36.655Z,3.20
2023-04-29T12:06:38.581Z,3.03
2023-04-29T12:09:42.544Z,3.30
2023-04-29T12:12:45.615Z,3.13
2023-04-29T12:15:48.933Z,3.23
2023-04-29T12:18:52.207Z,3.40
2023-04-29T12:21:53.970Z,3.27
2023-04-29T12:24:57.223Z,3.60
2023-04-29T12:28:04.543Z,3.50
2023-04-29T12:31:09.188Z,3.80
2023-04-29T12:34:10.968Z,2.70
2023-04-29T12:37:13.219Z,3.10
2023-04-29T12:40:16.390Z,2.93
2023-04-29T12:43:19.293Z,3.40
2023-04-29T12:46:21.107Z,3.07
2023-04-29T12:49:24.612Z,3.10
2023-04-29T12:52:26.306Z,3.33
2023-04-29T12:55:27.991Z,3.20
2023-04-29T12:58:30.536Z,3.03
2023-04-29T13:01:32.709Z,2.90
2023-04-29T13:04:34.633Z,3.10
2023-04-29T13:07:37.134Z,3.10
2023-04-29T13:10:38.810Z,3.10
2023-04-29T13:13:40.739Z,3.20
2023-04-29T13:16:42.405Z,3.33
2023-04-29T13:19:51.892Z,3.23
2023-04-29T13:22:53.894Z,2.90
2023-04-29T13:25:55.547Z,2.80
2023-04-29T13:28:57.256Z,2.80
2023-04-29T13:31:58.887Z,2.67
2023-04-29T13:35:00.954Z,3.00
2023-04-29T13:38:02.756Z,2.90
2023-04-29T13:41:08.912Z,2.70
2023-04-29T13:44:23.524Z,2.93
2023-04-29T13:47:32.615Z,2.60
2023-04-29T13:57:39.239Z,2.87
2023-04-29T14:00:38.176Z,2.80
2023-04-29T14:03:38.039Z,2.97
2023-04-29T14:06:39.850Z,3.03
2023-04-29T14:09:41.618Z,3.20
2023-04-29T14:12:43.287Z,3.30
2023-04-29T14:15:44.940Z,2.97
2023-04-29T14:18:46.525Z,2.77
2023-04-29T14:21:48.146Z,2.90
2023-04-29T14:24:49.852Z,2.90
2023-04-29T14:27:51.490Z,2.90
2023-04-29T14:30:53.161Z,3.07
2023-04-29T14:33:55.308Z,3.00
2023-04-29T14:36:59.217Z,3.43
2023-04-29T14:40:00.937Z,3.10
2023-04-29T14:43:04.264Z,3.20
2023-04-29T14:46:06.387Z,2.90
2023-04-29T14:49:08.005Z,3.07
2023-04-29T14:52:09.877Z,3.00
2023-04-29T14:55:11.677Z,2.93
2023-04-29T14:58:13.259Z,3.07
2023-04-29T15:01:15.068Z,3.00
2023-04-29T15:04:16.959Z,3.27
2023-04-29T15:07:19.062Z,3.70
2023-04-29T15:10:20.705Z,2.70
2023-04-29T15:13:22.320Z,3.73
2023-04-29T15:16:24.053Z,3.03
2023-04-29T15:19:26.398Z,3.40
2023-04-29T15:22:28.011Z,3.60
2023-04-29T15:25:30.108Z,3.93
2023-04-29T15:28:31.808Z,3.53
2023-04-29T15:31:33.463Z,3.30
2023-04-29T15:34:35.152Z,3.47
2023-04-29T15:37:37.079Z,3.30
2023-04-29T15:40:38.724Z,3.50
2023-04-29T15:43:40.383Z,4.77
2023-04-29T15:46:42.034Z,3.90
2023-04-29T15:49:44.966Z,3.70
2023-04-29T15:52:46.584Z,4.60
2023-04-29T15:55:48.214Z,5.37
2023-04-29T15:58:49.842Z,3.20
2023-04-29T16:01:51.949Z,3.13
2023-04-29T16:04:53.694Z,3.73
2023-04-29T16:07:55.521Z,3.40
2023-04-29T16:10:57.219Z,9.13
2023-04-29T16:13:58.858Z,3.10
2023-04-29T16:17:00.569Z,3.40
2023-04-29T16:20:02.280Z,3.97
2023-04-29T16:23:03.847Z,4.03
2023-04-29T16:26:05.882Z,4.20
2023-04-29T16:29:12.421Z,5.07
2023-04-29T16:32:14.078Z,4.83
2023-04-29T16:35:16.009Z,4.40
2023-04-29T16:38:17.865Z,4.80
2023-04-29T16:41:19.495Z,4.70
2023-04-29T16:44:21.408Z,5.03
2023-04-29T16:47:24.983Z,5.57
2023-04-29T16:50:27.621Z,4.23
2023-04-29T16:53:29.196Z,6.17
2023-04-29T16:56:31.108Z,5.10
2023-04-29T16:59:32.807Z,6.03
2023-04-29T17:02:34.782Z,5.50
2023-04-29T17:05:36.566Z,6.60
2023-04-29T17:08:38.308Z,6.00
2023-04-29T17:11:40.867Z,5.23
2023-04-29T17:14:42.605Z,5.43
2023-04-29T17:17:44.605Z,6.33
2023-04-29T17:20:48.846Z,5.10
2023-04-29T17:23:53.395Z,6.77
2023-04-29T17:26:55.172Z,6.70
2023-04-29T17:29:57.093Z,5.00
2023-04-29T17:33:05.425Z,6.37
2023-04-29T17:36:07.364Z,12.97
2023-04-29T17:39:11.308Z,7.80
2023-04-29T17:42:12.939Z,11.57
2023-04-29T17:45:19.852Z,48.93
2023-04-29T17:48:22.574Z,23.70
2023-04-29T17:51:24.389Z,16.67
2023-04-29T17:54:27.803Z,18.87
2023-04-29T17:57:29.385Z,20.03
2023-04-29T18:00:31.185Z,15.60
2023-04-29T18:03:36.242Z,14.07
2023-04-29T18:06:38.629Z,13.73
2023-04-29T18:09:41.528Z,16.07
2023-04-29T18:12:43.287Z,15.17
2023-04-29T18:15:45.206Z,15.13
2023-04-29T18:18:46.951Z,13.80
2023-04-29T18:21:48.685Z,15.40
2023-04-29T18:24:50.378Z,12.10
2023-04-29T18:27:54.430Z,17.90
2023-04-29T18:31:02.120Z,16.77
2023-04-29T18:34:06.688Z,13.57
2023-04-29T18:37:08.699Z,12.40
2023-04-29T18:40:13.899Z,11.27
2023-04-29T18:43:18.170Z,10.37
2023-04-29T18:46:19.918Z,10.80
2023-04-29T18:49:21.865Z,8.70
2023-04-29T18:52:23.629Z,10.47
2023-04-29T18:55:26.284Z,8.50
2023-04-29T18:58:28.239Z,9.27
2023-04-29T19:01:30.372Z,10.03
2023-04-29T19:04:35.475Z,8.77
2023-04-29T19:07:37.634Z,8.80
2023-04-29T19:10:39.344Z,9.10
2023-04-29T19:13:41.097Z,8.80
2023-04-29T19:16:42.826Z,8.70
2023-04-29T19:19:44.460Z,8.60
2023-04-29T19:22:46.267Z,8.83
2023-04-29T19:25:47.883Z,8.17
2023-04-29T19:28:49.630Z,8.10
2023-04-29T19:31:51.319Z,12.00
2023-04-29T19:34:53.025Z,11.50
2023-04-29T19:37:54.858Z,12.67
2023-04-29T19:40:56.796Z,12.27
2023-04-29T19:43:58.592Z,9.20
2023-04-29T19:47:00.801Z,7.57
2023-04-29T19:50:02.819Z,11.40
2023-04-29T19:53:04.414Z,12.73
2023-04-29T19:56:07.190Z,10.00
2023-04-29T19:59:08.858Z,9.63
2023-04-29T20:02:10.816Z,9.63
2023-04-29T20:05:15.337Z,9.23
2023-04-29T20:08:16.894Z,8.80
2023-04-29T20:11:18.705Z,8.50
2023-04-29T20:14:26.194Z,9.30
2023-04-29T20:17:31.259Z,8.83
2023-04-29T20:20:32.976Z,9.07
2023-04-29T20:23:35.083Z,7.57
2023-04-29T20:26:36.751Z,7.03
2023-04-29T20:29:38.571Z,7.93
2023-04-29T20:32:40.360Z,6.90
2023-04-29T20:35:42.084Z,7.53
2023-04-29T20:38:43.777Z,6.67
2023-04-29T20:41:45.528Z,6.93
2023-04-29T20:44:47.221Z,7.40
2023-04-29T20:47:48.925Z,6.90
2023-04-29T20:50:50.798Z,6.87
2023-04-29T20:53:52.541Z,6.90
2023-04-29T20:56:54.400Z,6.80
2023-04-29T20:59:56.228Z,7.50
2023-04-29T21:02:58.749Z,7.90
2023-04-29T21:06:00.600Z,7.90
2023-04-29T21:09:05.318Z,8.43
2023-04-29T21:12:07.094Z,7.40
2023-04-29T21:15:08.915Z,7.87
2023-04-29T21:18:10.815Z,8.00
2023-04-29T21:21:12.755Z,7.30
2023-04-29T21:24:14.364Z,7.70
2023-04-29T21:27:16.178Z,7.53
2023-04-29T21:30:17.785Z,7.00
2023-04-29T21:33:19.381Z,7.97
2023-04-29T21:36:21.042Z,7.87
2023-04-29T21:39:22.641Z,7.47
2023-04-29T21:42:26.304Z,7.30
2023-04-29T21:45:27.950Z,7.43
2023-04-29T21:48:29.638Z,6.27
2023-04-29T21:51:32.003Z,6.90
2023-04-29T21:54:33.564Z,7.30
2023-04-29T21:57:43.805Z,7.80
2023-04-29T22:00:58.114Z,7.17
2023-04-29T22:03:59.988Z,6.87
2023-04-29T22:07:01.670Z,7.43
2023-04-29T22:10:03.272Z,6.13
2023-04-29T22:13:04.877Z,6.97
2023-04-29T22:16:06.712Z,6.37
2023-04-29T22:19:08.647Z,6.50
2023-04-29T22:22:10.307Z,6.73
2023-04-29T22:25:12.005Z,7.00
2023-04-29T22:28:13.722Z,6.03
2023-04-29T22:31:15.471Z,5.97
2023-04-29T22:34:17.108Z,5.90
2023-04-29T22:37:18.772Z,7.20
2023-04-29T22:40:20.528Z,6.57
2023-04-29T22:43:22.523Z,5.53
2023-04-29T22:46:24.695Z,6.67
2023-04-29T22:49:26.441Z,6.70
2023-04-29T22:52:28.126Z,6.80
2023-04-29T22:55:29.840Z,6.03
2023-04-29T22:58:33.695Z,5.80
2023-04-29T23:01:35.437Z,5.70
2023-04-29T23:04:37.209Z,4.93
2023-04-29T23:07:38.954Z,5.27
2023-04-29T23:10:40.791Z,5.37
2023-04-29T23:13:42.401Z,5.83
2023-04-29T23:16:44.060Z,5.97
2023-04-29T23:19:46.063Z,5.90
2023-04-29T23:22:47.798Z,5.40
2023-04-29T23:25:49.646Z,5.63
2023-04-29T23:28:51.235Z,5.93
2023-04-29T23:31:52.884Z,7.13
2023-04-29T23:34:54.590Z,6.13
2023-04-29T23:37:56.351Z,6.73
2023-04-29T23:40:57.960Z,8.27
2023-04-29T23:44:02.532Z,6.67
2023-04-29T23:47:04.240Z,6.00
2023-04-29T23:50:06.548Z,5.63
2023-04-29T23:53:08.219Z,6.20
2023-04-29T23:56:09.836Z,6.07
2023-04-29T23:59:11.449Z,5.70
